CPA251 VHHH-EGLL
Flight info
| Callsign | CPA251 |
|---|---|
| Flight time | N/A |
| Altitude | 27600 |
| Route | BEKOL A461 SHL W22 TEPID W24 OSNOV G586 QP B330 ELKAL W179 BIPIP/K0917S0920 W179 IGNAK/K0898S0890 W179 WFX/K0917S0920 W179 OMBON W195 VIDEK/K0891S0890 W195 ORUNA/K0920S0950 W195 LAXAL/K0907S0920 W195 IDOPA W197 ANDIM B215 IBANO/K0917S0980 G470 AKLAS W192 FKG A368 SARIN/K0909F320 N161 ABURA/K0895F340 N161 GASBI/N0486F340 N161 LEYLA T916 MATAL DCT REBLO UR317 TBN UM11 CRM UL746 GOKPA/N0485F360 UL746 ODERO DCT OPT DCT TEGRI DCT GAZDA DCT ARSIN DCT PEROL DCT RENKA DCT INBED DCT BOMBI DCT DENUT L608 LOGAN |
| Aircraft | A346/H-SDE2E3FGHIJ3J4J5M1RWXY/LB1D1 |
Departure
| Time | 2026-05-04 14:46 |
|---|---|
| Airport | Hong Kong International Airport (VHHH) |
Arrival
| Time | N/A |
|---|---|
| Airport | London Heathrow Airport (EGLL) |
| Time | Latitude | Longitude | Altitude | Speed | Heading |
|---|---|---|---|---|---|
| 2026-05-04 14:10 | 22.31047 | 113.92709 | 44 ft | 0 kts | 298° |
| 2026-05-04 14:27 | 22.31047 | 113.92711 | 44 ft | 1 kts | 298° |
| 2026-05-04 14:28 | 22.31040 | 113.92724 | 44 ft | 2 kts | 298° |
| 2026-05-04 14:28 | 22.31033 | 113.92738 | 44 ft | 2 kts | 298° |
| 2026-05-04 14:28 | 22.31028 | 113.92748 | 44 ft | 2 kts | 298° |
| 2026-05-04 14:28 | 22.31023 | 113.92762 | 44 ft | 2 kts | 278° |
| 2026-05-04 14:29 | 22.31028 | 113.92791 | 44 ft | 2 kts | 237° |
| 2026-05-04 14:29 | 22.31044 | 113.92807 | 44 ft | 0 kts | 206° |
| 2026-05-04 14:30 | 22.31048 | 113.92808 | 44 ft | 0 kts | 205° |
| 2026-05-04 14:30 | 22.31044 | 113.92807 | 44 ft | 1 kts | 205° |
| 2026-05-04 14:30 | 22.30999 | 113.92785 | 44 ft | 5 kts | 205° |
| 2026-05-04 14:31 | 22.30966 | 113.92768 | 44 ft | 0 kts | 205° |
| 2026-05-04 14:34 | 22.30948 | 113.92760 | 44 ft | 5 kts | 206° |
| 2026-05-04 14:34 | 22.30902 | 113.92730 | 44 ft | 9 kts | 214° |
| 2026-05-04 14:34 | 22.30848 | 113.92677 | 44 ft | 11 kts | 229° |
| 2026-05-04 14:34 | 22.30806 | 113.92602 | 44 ft | 12 kts | 247° |
| 2026-05-04 14:35 | 22.30776 | 113.92515 | 44 ft | 10 kts | 250° |
| 2026-05-04 14:35 | 22.30752 | 113.92443 | 44 ft | 10 kts | 253° |
| 2026-05-04 14:35 | 22.30759 | 113.92367 | 44 ft | 10 kts | 306° |
| 2026-05-04 14:35 | 22.30826 | 113.92320 | 44 ft | 12 kts | 337° |
| 2026-05-04 14:36 | 22.30908 | 113.92288 | 44 ft | 13 kts | 341° |
| 2026-05-04 14:36 | 22.30999 | 113.92255 | 44 ft | 14 kts | 341° |
| 2026-05-04 14:36 | 22.31094 | 113.92220 | 44 ft | 14 kts | 341° |
| 2026-05-04 14:36 | 22.31194 | 113.92183 | 44 ft | 15 kts | 341° |
| 2026-05-04 14:37 | 22.31290 | 113.92146 | 44 ft | 14 kts | 340° |
| 2026-05-04 14:37 | 22.31370 | 113.92115 | 44 ft | 9 kts | 340° |
| 2026-05-04 14:37 | 22.31426 | 113.92094 | 44 ft | 7 kts | 340° |
| 2026-05-04 14:37 | 22.31461 | 113.92080 | 44 ft | 4 kts | 341° |
| 2026-05-04 14:38 | 22.31497 | 113.92062 | 44 ft | 6 kts | 320° |
| 2026-05-04 14:38 | 22.31517 | 113.92010 | 44 ft | 8 kts | 270° |
| 2026-05-04 14:38 | 22.31505 | 113.91939 | 44 ft | 10 kts | 255° |
| 2026-05-04 14:38 | 22.31480 | 113.91859 | 44 ft | 12 kts | 251° |
| 2026-05-04 14:39 | 22.31450 | 113.91769 | 44 ft | 13 kts | 250° |
| 2026-05-04 14:39 | 22.31418 | 113.91672 | 44 ft | 14 kts | 251° |
| 2026-05-04 14:39 | 22.31385 | 113.91569 | 44 ft | 14 kts | 251° |
| 2026-05-04 14:40 | 22.31314 | 113.91349 | 44 ft | 16 kts | 250° |
| 2026-05-04 14:40 | 22.31277 | 113.91235 | 44 ft | 16 kts | 251° |
| 2026-05-04 14:40 | 22.31240 | 113.91116 | 44 ft | 16 kts | 251° |
| 2026-05-04 14:40 | 22.31202 | 113.90995 | 44 ft | 17 kts | 251° |
| 2026-05-04 14:41 | 22.31161 | 113.90874 | 44 ft | 17 kts | 250° |
| 2026-05-04 14:41 | 22.31122 | 113.90752 | 44 ft | 17 kts | 250° |
| 2026-05-04 14:41 | 22.31045 | 113.90514 | 44 ft | 15 kts | 251° |
| 2026-05-04 14:42 | 22.30971 | 113.90282 | 44 ft | 16 kts | 251° |
| 2026-05-04 14:42 | 22.30932 | 113.90164 | 44 ft | 16 kts | 251° |
| 2026-05-04 14:42 | 22.30899 | 113.90059 | 44 ft | 12 kts | 250° |
| 2026-05-04 14:43 | 22.30869 | 113.89966 | 44 ft | 13 kts | 250° |
| 2026-05-04 14:43 | 22.30851 | 113.89880 | 44 ft | 10 kts | 278° |
| 2026-05-04 14:43 | 22.30895 | 113.89820 | 44 ft | 9 kts | 330° |
| 2026-05-04 14:43 | 22.30958 | 113.89786 | 44 ft | 10 kts | 338° |
| 2026-05-04 14:44 | 22.31022 | 113.89764 | 44 ft | 9 kts | 352° |
| 2026-05-04 14:44 | 22.31075 | 113.89780 | 44 ft | 4 kts | 52° |
| 2026-05-04 14:44 | 22.31078 | 113.89785 | 44 ft | 0 kts | 53° |
| 2026-05-04 14:44 | 22.31123 | 113.89882 | 44 ft | 41 kts | 69° |
| 2026-05-04 14:45 | 22.31282 | 113.90375 | 44 ft | 97 kts | 70° |
| 2026-05-04 14:45 | 22.31558 | 113.91241 | 45 ft | 144 kts | 71° |
| 2026-05-04 14:45 | 22.31933 | 113.92398 | 45 ft | 184 kts | 70° |
| 2026-05-04 14:45 | 22.32379 | 113.93769 | 377 ft | 191 kts | 71° |
| 2026-05-04 14:46 | 22.32817 | 113.95102 | 788 ft | 191 kts | 73° |
| 2026-05-04 14:46 | 22.33239 | 113.96489 | 1193 ft | 195 kts | 76° |
| 2026-05-04 14:46 | 22.33538 | 113.97913 | 1652 ft | 196 kts | 81° |
| 2026-05-04 14:46 | 22.33776 | 113.99364 | 1946 ft | 204 kts | 81° |
| 2026-05-04 14:47 | 22.34029 | 114.00937 | 2155 ft | 217 kts | 81° |
| 2026-05-04 14:47 | 22.34295 | 114.02576 | 2400 ft | 230 kts | 82° |
| 2026-05-04 14:47 | 22.34239 | 114.04342 | 2626 ft | 244 kts | 112° |
| 2026-05-04 14:47 | 22.33209 | 114.05842 | 2888 ft | 260 kts | 136° |
| 2026-05-04 14:48 | 22.31850 | 114.07216 | 3234 ft | 272 kts | 134° |
| 2026-05-04 14:48 | 22.30380 | 114.08504 | 3723 ft | 279 kts | 153° |
| 2026-05-04 14:48 | 22.28489 | 114.09038 | 4263 ft | 284 kts | 178° |
| 2026-05-04 14:48 | 22.26528 | 114.08984 | 4845 ft | 287 kts | 183° |
| 2026-05-04 14:49 | 22.24516 | 114.08857 | 5428 ft | 289 kts | 184° |
| 2026-05-04 14:49 | 22.22509 | 114.08755 | 6004 ft | 291 kts | 183° |
| 2026-05-04 14:49 | 22.20471 | 114.08689 | 6559 ft | 293 kts | 183° |
| 2026-05-04 14:49 | 22.18440 | 114.08809 | 7079 ft | 298 kts | 165° |
| 2026-05-04 14:50 | 22.16642 | 114.09916 | 7577 ft | 305 kts | 134° |
| 2026-05-04 14:50 | 22.15565 | 114.11910 | 8018 ft | 314 kts | 104° |
| 2026-05-04 14:50 | 22.15355 | 114.14272 | 8513 ft | 318 kts | 91° |
| 2026-05-04 14:50 | 22.15377 | 114.16659 | 8951 ft | 323 kts | 91° |
| 2026-05-04 14:51 | 22.15360 | 114.19093 | 9371 ft | 327 kts | 93° |
| 2026-05-04 14:51 | 22.15271 | 114.21554 | 9820 ft | 330 kts | 95° |
| 2026-05-04 14:51 | 22.15177 | 114.24038 | 10239 ft | 335 kts | 90° |
| 2026-05-04 14:51 | 22.15354 | 114.26572 | 10466 ft | 346 kts | 81° |
| 2026-05-04 14:52 | 22.15840 | 114.29149 | 10667 ft | 358 kts | 77° |
| 2026-05-04 14:52 | 22.16426 | 114.31775 | 10866 ft | 369 kts | 76° |
| 2026-05-04 14:52 | 22.17040 | 114.34498 | 11065 ft | 380 kts | 76° |
| 2026-05-04 14:52 | 22.17706 | 114.37314 | 11247 ft | 392 kts | 70° |
| 2026-05-04 14:53 | 22.19083 | 114.39888 | 11409 ft | 399 kts | 45° |
| 2026-05-04 14:53 | 22.21283 | 114.41666 | 11677 ft | 399 kts | 21° |
| 2026-05-04 14:53 | 22.23931 | 114.42448 | 12052 ft | 394 kts | 359° |
| 2026-05-04 14:53 | 22.26634 | 114.42189 | 12508 ft | 387 kts | 344° |
| 2026-05-04 14:54 | 22.29273 | 114.41606 | 12983 ft | 389 kts | 344° |
| 2026-05-04 14:54 | 22.31941 | 114.41048 | 13418 ft | 392 kts | 345° |
| 2026-05-04 14:54 | 22.34635 | 114.40510 | 13854 ft | 394 kts | 345° |
| 2026-05-04 14:54 | 22.37356 | 114.39983 | 14286 ft | 397 kts | 346° |
| 2026-05-04 14:55 | 22.40077 | 114.39464 | 14673 ft | 400 kts | 345° |
| 2026-05-04 14:55 | 22.42833 | 114.38940 | 15087 ft | 402 kts | 346° |
| 2026-05-04 14:55 | 22.45584 | 114.38373 | 15470 ft | 402 kts | 340° |
| 2026-05-04 14:55 | 22.48083 | 114.37108 | 15783 ft | 395 kts | 319° |
| 2026-05-04 14:56 | 22.49993 | 114.35041 | 16199 ft | 388 kts | 302° |
| 2026-05-04 14:56 | 22.51217 | 114.32458 | 16550 ft | 385 kts | 285° |
| 2026-05-04 14:56 | 22.51751 | 114.29654 | 16877 ft | 386 kts | 278° |
| 2026-05-04 14:56 | 22.52181 | 114.26791 | 17223 ft | 388 kts | 278° |
| 2026-05-04 14:57 | 22.52635 | 114.23885 | 17558 ft | 391 kts | 278° |
| 2026-05-04 14:57 | 22.53095 | 114.21008 | 17914 ft | 393 kts | 279° |
| 2026-05-04 14:57 | 22.53571 | 114.18089 | 18253 ft | 395 kts | 280° |
| 2026-05-04 14:57 | 22.54472 | 114.15303 | 18527 ft | 401 kts | 297° |
| 2026-05-04 14:58 | 22.56207 | 114.12888 | 18865 ft | 408 kts | 314° |
| 2026-05-04 14:58 | 22.58520 | 114.11133 | 19182 ft | 417 kts | 329° |
| 2026-05-04 14:58 | 22.61160 | 114.09811 | 19526 ft | 419 kts | 331° |
| 2026-05-04 14:58 | 22.63815 | 114.08468 | 19819 ft | 422 kts | 330° |
| 2026-05-04 14:59 | 22.66484 | 114.07103 | 20113 ft | 424 kts | 330° |
| 2026-05-04 14:59 | 22.69160 | 114.05729 | 20392 ft | 427 kts | 330° |
| 2026-05-04 14:59 | 22.74566 | 114.02948 | 20949 ft | 433 kts | 330° |
| 2026-05-04 15:00 | 22.77327 | 114.01525 | 21229 ft | 435 kts | 330° |
| 2026-05-04 15:00 | 22.80051 | 114.00120 | 21512 ft | 437 kts | 330° |
| 2026-05-04 15:00 | 22.82814 | 113.98697 | 21814 ft | 439 kts | 330° |
| 2026-05-04 15:01 | 22.88338 | 113.95848 | 22387 ft | 443 kts | 330° |
| 2026-05-04 15:01 | 22.91149 | 113.94395 | 22635 ft | 445 kts | 330° |
| 2026-05-04 15:01 | 22.93948 | 113.92942 | 22900 ft | 447 kts | 329° |
| 2026-05-04 15:01 | 22.96748 | 113.91483 | 23186 ft | 449 kts | 329° |
| 2026-05-04 15:02 | 22.99573 | 113.90013 | 23494 ft | 450 kts | 329° |
| 2026-05-04 15:02 | 23.02385 | 113.88548 | 23767 ft | 451 kts | 329° |
| 2026-05-04 15:02 | 23.05255 | 113.87045 | 24039 ft | 452 kts | 327° |
| 2026-05-04 15:02 | 23.07946 | 113.85381 | 24305 ft | 450 kts | 322° |
| 2026-05-04 15:03 | 23.10502 | 113.83418 | 24582 ft | 447 kts | 316° |
| 2026-05-04 15:03 | 23.12853 | 113.81207 | 24841 ft | 445 kts | 311° |
| 2026-05-04 15:03 | 23.15100 | 113.78888 | 25115 ft | 445 kts | 310° |
| 2026-05-04 15:03 | 23.17325 | 113.76548 | 25410 ft | 446 kts | 310° |
| 2026-05-04 15:04 | 23.19548 | 113.74206 | 25693 ft | 446 kts | 310° |
| 2026-05-04 15:04 | 23.21758 | 113.71882 | 25963 ft | 447 kts | 310° |
| 2026-05-04 15:04 | 23.23997 | 113.69530 | 26216 ft | 448 kts | 310° |
| 2026-05-04 15:04 | 23.26242 | 113.67173 | 26436 ft | 450 kts | 310° |
| 2026-05-04 15:05 | 23.28505 | 113.64798 | 26687 ft | 451 kts | 310° |
| 2026-05-04 15:05 | 23.30738 | 113.62410 | 26938 ft | 448 kts | 306° |
| 2026-05-04 15:05 | 23.32432 | 113.59642 | 27112 ft | 438 kts | 292° |
| 2026-05-04 15:05 | 23.33791 | 113.56676 | 27391 ft | 438 kts | 292° |
| 2026-05-04 15:06 | 23.35176 | 113.53715 | 27618 ft | 440 kts | 292° |
| 2026-05-04 15:06 | 23.36579 | 113.50768 | 27847 ft | 441 kts | 293° |
| 2026-05-04 15:06 | 23.37989 | 113.47839 | 28075 ft | 442 kts | 293° |
| 2026-05-04 15:07 | 23.40877 | 113.41899 | 28567 ft | 442 kts | 293° |
| 2026-05-04 15:07 | 23.42308 | 113.38969 | 28915 ft | 439 kts | 293° |
| 2026-05-04 15:07 | 23.43728 | 113.36067 | 29245 ft | 437 kts | 294° |
| 2026-05-04 15:07 | 23.45148 | 113.33164 | 29537 ft | 436 kts | 293° |
| 2026-05-04 15:08 | 23.46580 | 113.30237 | 29833 ft | 435 kts | 293° |
| 2026-05-04 15:08 | 23.47997 | 113.27338 | 30148 ft | 434 kts | 293° |
| 2026-05-04 15:08 | 23.49420 | 113.24430 | 30432 ft | 433 kts | 293° |
| 2026-05-04 15:08 | 23.50811 | 113.21583 | 30694 ft | 432 kts | 293° |
| 2026-05-04 15:09 | 23.52235 | 113.18667 | 30904 ft | 433 kts | 293° |
| 2026-05-04 15:09 | 23.53650 | 113.15770 | 31087 ft | 434 kts | 293° |
| 2026-05-04 15:09 | 23.55060 | 113.12879 | 31290 ft | 434 kts | 293° |
| 2026-05-04 15:10 | 23.57879 | 113.07097 | 31644 ft | 435 kts | 294° |
| 2026-05-04 15:10 | 23.59294 | 113.04193 | 31847 ft | 435 kts | 293° |
| 2026-05-04 15:10 | 23.62125 | 112.98380 | 32165 ft | 436 kts | 294° |
| 2026-05-04 15:11 | 23.63554 | 112.95443 | 32262 ft | 437 kts | 293° |
| 2026-05-04 15:11 | 23.66384 | 112.89616 | 32269 ft | 437 kts | 294° |
| 2026-05-04 15:12 | 23.69226 | 112.83764 | 32279 ft | 436 kts | 293° |
| 2026-05-04 15:12 | 23.72063 | 112.77914 | 32288 ft | 436 kts | 294° |
| 2026-05-04 15:13 | 23.74887 | 112.72079 | 32297 ft | 436 kts | 294° |
| 2026-05-04 15:13 | 23.77705 | 112.66251 | 32293 ft | 436 kts | 294° |
| 2026-05-04 15:14 | 23.80526 | 112.60412 | 32292 ft | 436 kts | 294° |
| 2026-05-04 15:14 | 23.83340 | 112.54579 | 32292 ft | 435 kts | 294° |
| 2026-05-04 15:15 | 23.86163 | 112.48724 | 32286 ft | 435 kts | 293° |
| 2026-05-04 15:15 | 23.88972 | 112.42886 | 32285 ft | 434 kts | 293° |
| 2026-05-04 15:16 | 23.93180 | 112.34126 | 32287 ft | 435 kts | 294° |
| 2026-05-04 15:17 | 23.97368 | 112.25393 | 32281 ft | 433 kts | 293° |
| 2026-05-04 15:17 | 24.01555 | 112.16650 | 32279 ft | 433 kts | 293° |
| 2026-05-04 15:18 | 24.04337 | 112.10830 | 32278 ft | 433 kts | 293° |
| 2026-05-04 15:19 | 24.08524 | 112.02058 | 32202 ft | 434 kts | 294° |
| 2026-05-04 15:19 | 24.12694 | 111.93304 | 32186 ft | 433 kts | 293° |
| 2026-05-04 15:20 | 24.15478 | 111.87451 | 32188 ft | 432 kts | 294° |
| 2026-05-04 15:20 | 24.18236 | 111.81651 | 32183 ft | 433 kts | 293° |
| 2026-05-04 15:21 | 24.21015 | 111.75794 | 32184 ft | 432 kts | 293° |
| 2026-05-04 15:22 | 24.25157 | 111.67046 | 32188 ft | 432 kts | 293° |
| 2026-05-04 15:22 | 24.29289 | 111.58310 | 32194 ft | 432 kts | 294° |
| 2026-05-04 15:23 | 24.32053 | 111.52454 | 32197 ft | 433 kts | 294° |
| 2026-05-04 15:23 | 24.34816 | 111.46594 | 32198 ft | 432 kts | 294° |
| 2026-05-04 15:24 | 24.40305 | 111.34933 | 32193 ft | 432 kts | 293° |
| 2026-05-04 15:25 | 24.43060 | 111.29073 | 32191 ft | 432 kts | 293° |
| 2026-05-04 15:26 | 24.47177 | 111.20292 | 32190 ft | 431 kts | 294° |
| 2026-05-04 15:26 | 24.51274 | 111.11539 | 32189 ft | 432 kts | 294° |
| 2026-05-04 15:27 | 24.55383 | 111.02750 | 32190 ft | 432 kts | 294° |
| 2026-05-04 15:28 | 24.59492 | 110.93938 | 32192 ft | 432 kts | 293° |
| 2026-05-04 15:29 | 24.63665 | 110.85217 | 32191 ft | 433 kts | 296° |
| 2026-05-04 15:30 | 24.77019 | 110.67147 | 32177 ft | 442 kts | 310° |
| 2026-05-04 15:31 | 24.83678 | 110.60117 | 32188 ft | 441 kts | 311° |
| 2026-05-04 15:32 | 24.94730 | 110.48455 | 32193 ft | 440 kts | 311° |
| 2026-05-04 15:34 | 25.05752 | 110.36811 | 32189 ft | 440 kts | 311° |
| 2026-05-04 15:34 | 25.12363 | 110.29825 | 32187 ft | 439 kts | 310° |
| 2026-05-04 15:35 | 25.18994 | 110.22801 | 32181 ft | 440 kts | 310° |
| 2026-05-04 15:36 | 25.25610 | 110.15855 | 32175 ft | 440 kts | 311° |
| 2026-05-04 15:36 | 25.30069 | 110.11191 | 32172 ft | 440 kts | 311° |
| 2026-05-04 15:37 | 25.34495 | 110.06553 | 32183 ft | 440 kts | 311° |
| 2026-05-04 15:37 | 25.38929 | 110.01898 | 32184 ft | 439 kts | 311° |
| 2026-05-04 15:38 | 25.43333 | 109.97270 | 32196 ft | 439 kts | 311° |
| 2026-05-04 15:38 | 25.47770 | 109.92604 | 32208 ft | 439 kts | 311° |
| 2026-05-04 15:39 | 25.52178 | 109.87959 | 32219 ft | 439 kts | 311° |
| 2026-05-04 15:40 | 25.58801 | 109.80974 | 32224 ft | 438 kts | 311° |
| 2026-05-04 15:40 | 25.63195 | 109.76331 | 32215 ft | 438 kts | 311° |
| 2026-05-04 15:41 | 25.67593 | 109.71680 | 32209 ft | 438 kts | 311° |
| 2026-05-04 15:41 | 25.71871 | 109.66874 | 32203 ft | 434 kts | 306° |
| 2026-05-04 15:42 | 25.75484 | 109.61571 | 32195 ft | 430 kts | 299° |
| 2026-05-04 15:42 | 25.78402 | 109.55810 | 32194 ft | 428 kts | 292° |
| 2026-05-04 15:43 | 25.80576 | 109.49714 | 32192 ft | 426 kts | 286° |
| 2026-05-04 15:43 | 25.82270 | 109.43437 | 32193 ft | 425 kts | 285° |
| 2026-05-04 15:44 | 25.83931 | 109.37176 | 32195 ft | 425 kts | 285° |
| 2026-05-04 15:44 | 25.85590 | 109.30875 | 32202 ft | 425 kts | 285° |
| 2026-05-04 15:45 | 25.87242 | 109.24583 | 32201 ft | 426 kts | 285° |
| 2026-05-04 15:45 | 25.88885 | 109.18301 | 32201 ft | 425 kts | 285° |
| 2026-05-04 15:46 | 25.90532 | 109.11997 | 32201 ft | 424 kts | 285° |
| 2026-05-04 15:46 | 25.92162 | 109.05742 | 32204 ft | 425 kts | 285° |
| 2026-05-04 15:47 | 25.93829 | 108.99441 | 32202 ft | 425 kts | 285° |
| 2026-05-04 15:47 | 25.95499 | 108.93179 | 32206 ft | 425 kts | 285° |
| 2026-05-04 15:48 | 25.97166 | 108.86903 | 32212 ft | 425 kts | 285° |
| 2026-05-04 15:48 | 25.99661 | 108.77473 | 32219 ft | 425 kts | 285° |
| 2026-05-04 15:49 | 26.01324 | 108.71186 | 32225 ft | 425 kts | 285° |
| 2026-05-04 15:49 | 26.02996 | 108.64904 | 32229 ft | 425 kts | 285° |
| 2026-05-04 15:50 | 26.04665 | 108.58630 | 32224 ft | 425 kts | 285° |
| 2026-05-04 15:50 | 26.06332 | 108.52338 | 32214 ft | 426 kts | 285° |
| 2026-05-04 15:51 | 26.08004 | 108.46017 | 32218 ft | 426 kts | 285° |
| 2026-05-04 15:51 | 26.09890 | 108.39817 | 32227 ft | 426 kts | 290° |
| 2026-05-04 15:52 | 26.12278 | 108.33760 | 32241 ft | 427 kts | 293° |
| 2026-05-04 15:52 | 26.14835 | 108.27821 | 32263 ft | 426 kts | 293° |
| 2026-05-04 15:53 | 26.17395 | 108.21891 | 32270 ft | 427 kts | 293° |
| 2026-05-04 15:53 | 26.19959 | 108.15945 | 32277 ft | 426 kts | 293° |
| 2026-05-04 15:54 | 26.22525 | 108.09998 | 32272 ft | 427 kts | 293° |
| 2026-05-04 15:54 | 26.25082 | 108.04057 | 32272 ft | 426 kts | 294° |
| 2026-05-04 15:55 | 26.27637 | 107.98117 | 32263 ft | 426 kts | 294° |
| 2026-05-04 15:55 | 26.30195 | 107.92163 | 32256 ft | 425 kts | 293° |
| 2026-05-04 15:56 | 26.32731 | 107.86248 | 32256 ft | 425 kts | 293° |
| 2026-05-04 15:56 | 26.35276 | 107.80306 | 32249 ft | 425 kts | 294° |
| 2026-05-04 15:57 | 26.37817 | 107.74363 | 32245 ft | 425 kts | 293° |
| 2026-05-04 15:57 | 26.40354 | 107.68423 | 32244 ft | 426 kts | 294° |
| 2026-05-04 15:58 | 26.42892 | 107.62470 | 32248 ft | 425 kts | 294° |
| 2026-05-04 15:58 | 26.45414 | 107.56551 | 32252 ft | 426 kts | 294° |
| 2026-05-04 15:59 | 26.47948 | 107.50592 | 32247 ft | 426 kts | 294° |
| 2026-05-04 15:59 | 26.50477 | 107.44621 | 32270 ft | 425 kts | 294° |
| 2026-05-04 16:00 | 26.52999 | 107.38661 | 32267 ft | 425 kts | 294° |
| 2026-05-04 16:00 | 26.55517 | 107.32707 | 32273 ft | 425 kts | 294° |
| 2026-05-04 16:01 | 26.58046 | 107.26735 | 32274 ft | 424 kts | 294° |
| 2026-05-04 16:01 | 26.60566 | 107.20776 | 32268 ft | 424 kts | 294° |
| 2026-05-04 16:02 | 26.63067 | 107.14850 | 32268 ft | 424 kts | 294° |
| 2026-05-04 16:03 | 26.66841 | 107.05964 | 32264 ft | 423 kts | 294° |
| 2026-05-04 16:03 | 26.69365 | 107.00024 | 32262 ft | 423 kts | 294° |
| 2026-05-04 16:04 | 26.71875 | 106.94103 | 32264 ft | 423 kts | 294° |
| 2026-05-04 16:04 | 26.75821 | 106.85310 | 32267 ft | 424 kts | 298° |
| 2026-05-04 16:05 | 26.79050 | 106.79782 | 32273 ft | 425 kts | 303° |
| 2026-05-04 16:06 | 26.84830 | 106.72231 | 32274 ft | 429 kts | 311° |
| 2026-05-04 16:07 | 26.93733 | 106.63284 | 32270 ft | 432 kts | 314° |
| 2026-05-04 16:08 | 27.02752 | 106.54427 | 32268 ft | 430 kts | 314° |
| 2026-05-04 16:09 | 27.13980 | 106.43388 | 32251 ft | 430 kts | 314° |
| 2026-05-04 16:10 | 27.23004 | 106.34525 | 32270 ft | 429 kts | 314° |
| 2026-05-04 16:11 | 27.32000 | 106.25781 | 32258 ft | 428 kts | 314° |
| 2026-05-04 16:12 | 27.45467 | 106.12637 | 32253 ft | 427 kts | 314° |
| 2026-05-04 16:13 | 27.54434 | 106.03857 | 32240 ft | 426 kts | 315° |
| 2026-05-04 16:14 | 27.63370 | 105.95087 | 32232 ft | 427 kts | 314° |
| 2026-05-04 16:16 | 27.72804 | 105.82498 | 32217 ft | 419 kts | 298° |
| 2026-05-04 16:17 | 27.78201 | 105.67295 | 32214 ft | 419 kts | 288° |
| 2026-05-04 16:18 | 27.82353 | 105.55027 | 32206 ft | 420 kts | 293° |
| 2026-05-04 16:19 | 27.88170 | 105.39963 | 32216 ft | 419 kts | 294° |
| 2026-05-04 16:20 | 27.94827 | 105.25331 | 32235 ft | 421 kts | 300° |
| 2026-05-04 16:22 | 28.04683 | 105.13023 | 32196 ft | 429 kts | 317° |
| 2026-05-04 16:23 | 28.19890 | 105.02010 | 32190 ft | 432 kts | 322° |
| 2026-05-04 16:25 | 28.35252 | 104.91245 | 32179 ft | 432 kts | 322° |
| 2026-05-04 16:26 | 28.53206 | 104.78682 | 32113 ft | 432 kts | 323° |
| 2026-05-04 16:28 | 28.65981 | 104.69726 | 32111 ft | 433 kts | 323° |
| 2026-05-04 16:29 | 28.83886 | 104.57123 | 32098 ft | 431 kts | 323° |
| 2026-05-04 16:31 | 28.96611 | 104.48077 | 32080 ft | 432 kts | 323° |
| 2026-05-04 16:32 | 29.11866 | 104.37183 | 32068 ft | 432 kts | 323° |
| 2026-05-04 16:33 | 29.22371 | 104.30396 | 32075 ft | 438 kts | 333° |
| 2026-05-04 16:34 | 29.31335 | 104.27962 | 32081 ft | 452 kts | 348° |
| 2026-05-04 16:35 | 29.40888 | 104.28485 | 32083 ft | 463 kts | 360° |
| 2026-05-04 16:35 | 29.50460 | 104.30099 | 32086 ft | 462 kts | 0° |
| 2026-05-04 16:36 | 29.59968 | 104.31723 | 32089 ft | 461 kts | 0° |
| 2026-05-04 16:37 | 29.69444 | 104.33342 | 32092 ft | 458 kts | 0° |
| 2026-05-04 16:38 | 29.82001 | 104.35492 | 32090 ft | 456 kts | 0° |
| 2026-05-04 16:39 | 29.97632 | 104.38176 | 32090 ft | 454 kts | 1° |
| 2026-05-04 16:40 | 30.10114 | 104.40327 | 32097 ft | 452 kts | 1° |
| 2026-05-04 16:41 | 30.25671 | 104.43023 | 32097 ft | 451 kts | 1° |
| 2026-05-04 16:43 | 30.41168 | 104.45734 | 32099 ft | 450 kts | 1° |
| 2026-05-04 16:43 | 30.50451 | 104.47341 | 32092 ft | 448 kts | 360° |
| 2026-05-04 16:44 | 30.62704 | 104.47275 | 32101 ft | 435 kts | 347° |
| 2026-05-04 16:45 | 30.68613 | 104.45944 | 32099 ft | 430 kts | 341° |
| 2026-05-04 16:46 | 30.82867 | 104.40917 | 32103 ft | 430 kts | 342° |
| 2026-05-04 16:47 | 30.94768 | 104.38856 | 32095 ft | 436 kts | 352° |
| 2026-05-04 16:48 | 31.06907 | 104.38461 | 32103 ft | 436 kts | 353° |
| 2026-05-04 16:49 | 31.19087 | 104.38146 | 32110 ft | 436 kts | 353° |
| 2026-05-04 16:50 | 31.31174 | 104.37662 | 32112 ft | 434 kts | 352° |
| 2026-05-04 16:51 | 31.40215 | 104.37106 | 32131 ft | 434 kts | 352° |
| 2026-05-04 16:52 | 31.52240 | 104.36399 | 32154 ft | 432 kts | 352° |
| 2026-05-04 16:53 | 31.61248 | 104.35875 | 32196 ft | 433 kts | 353° |
| 2026-05-04 16:54 | 31.73264 | 104.35173 | 32251 ft | 431 kts | 352° |
| 2026-05-04 16:55 | 31.91266 | 104.34215 | 32271 ft | 431 kts | 353° |
| 2026-05-04 16:56 | 32.06247 | 104.33449 | 32301 ft | 429 kts | 353° |
| 2026-05-04 16:57 | 32.15202 | 104.32987 | 32313 ft | 430 kts | 353° |
| 2026-05-04 16:58 | 32.27130 | 104.32375 | 32378 ft | 429 kts | 353° |
| 2026-05-04 17:00 | 32.45007 | 104.31463 | 32374 ft | 427 kts | 353° |
| 2026-05-04 17:01 | 32.59833 | 104.30754 | 32421 ft | 427 kts | 354° |
| 2026-05-04 17:02 | 32.71703 | 104.30177 | 32453 ft | 427 kts | 354° |
| 2026-05-04 17:03 | 32.80621 | 104.29753 | 32479 ft | 427 kts | 354° |
| 2026-05-04 17:03 | 32.89504 | 104.29321 | 32482 ft | 425 kts | 354° |
| 2026-05-04 17:04 | 32.95440 | 104.29032 | 32735 ft | 427 kts | 354° |
| 2026-05-04 17:04 | 33.01330 | 104.28751 | 33351 ft | 421 kts | 354° |
| 2026-05-04 17:05 | 33.07184 | 104.28465 | 33712 ft | 420 kts | 354° |
| 2026-05-04 17:05 | 33.13020 | 104.28184 | 34031 ft | 421 kts | 354° |
| 2026-05-04 17:06 | 33.18897 | 104.27900 | 34362 ft | 421 kts | 354° |
| 2026-05-04 17:06 | 33.21809 | 104.27757 | 34396 ft | 422 kts | 353° |
| 2026-05-04 17:07 | 33.29585 | 104.26986 | 34407 ft | 419 kts | 347° |
| 2026-05-04 17:07 | 33.36150 | 104.25159 | 34397 ft | 416 kts | 340° |
| 2026-05-04 17:08 | 33.44147 | 104.21234 | 34443 ft | 415 kts | 332° |
| 2026-05-04 17:09 | 33.49188 | 104.17898 | 34439 ft | 415 kts | 331° |
| 2026-05-04 17:09 | 33.54410 | 104.14943 | 34443 ft | 416 kts | 337° |
| 2026-05-04 17:10 | 33.68565 | 104.11296 | 34414 ft | 421 kts | 353° |
| 2026-05-04 17:11 | 33.74424 | 104.11143 | 34416 ft | 422 kts | 355° |
| 2026-05-04 17:12 | 33.83253 | 104.11122 | 34394 ft | 423 kts | 356° |
| 2026-05-04 17:13 | 33.97957 | 104.11119 | 34352 ft | 422 kts | 356° |
| 2026-05-04 17:14 | 34.09700 | 104.11123 | 34356 ft | 422 kts | 356° |
| 2026-05-04 17:15 | 34.18515 | 104.11127 | 34369 ft | 422 kts | 356° |
| 2026-05-04 17:16 | 34.30192 | 104.11128 | 34377 ft | 421 kts | 356° |
| 2026-05-04 17:17 | 34.41897 | 104.11133 | 34388 ft | 421 kts | 356° |
| 2026-05-04 17:18 | 34.53564 | 104.11135 | 34394 ft | 419 kts | 356° |
| 2026-05-04 17:19 | 34.65236 | 104.11137 | 34366 ft | 419 kts | 356° |
| 2026-05-04 17:20 | 34.76913 | 104.11144 | 34433 ft | 419 kts | 356° |
| 2026-05-04 17:20 | 34.85645 | 104.11147 | 34425 ft | 419 kts | 356° |
| 2026-05-04 17:21 | 34.97310 | 104.11151 | 34399 ft | 417 kts | 356° |
| 2026-05-04 17:22 | 35.03086 | 104.11153 | 34371 ft | 417 kts | 357° |
| 2026-05-04 17:23 | 35.14705 | 104.11163 | 34339 ft | 418 kts | 357° |
| 2026-05-04 17:24 | 35.23452 | 104.11168 | 34313 ft | 418 kts | 356° |
| 2026-05-04 17:25 | 35.35028 | 104.11173 | 34285 ft | 417 kts | 356° |
| 2026-05-04 17:26 | 35.46643 | 104.11183 | 34273 ft | 416 kts | 356° |
| 2026-05-04 17:27 | 35.61112 | 104.11227 | 34269 ft | 416 kts | 356° |
| 2026-05-04 17:28 | 35.72721 | 104.11279 | 34276 ft | 417 kts | 357° |
| 2026-05-04 17:29 | 35.90063 | 104.10536 | 34202 ft | 415 kts | 352° |
| 2026-05-04 17:31 | 36.04435 | 104.08971 | 34125 ft | 415 kts | 352° |
| 2026-05-04 17:32 | 36.18766 | 104.07401 | 34113 ft | 415 kts | 352° |
| 2026-05-04 17:33 | 36.30246 | 104.06145 | 34116 ft | 413 kts | 352° |
| 2026-05-04 17:34 | 36.41704 | 104.04890 | 34129 ft | 414 kts | 352° |
| 2026-05-04 17:35 | 36.55740 | 104.02125 | 34128 ft | 410 kts | 337° |
| 2026-05-04 17:36 | 36.60761 | 103.98645 | 34124 ft | 410 kts | 324° |
| 2026-05-04 17:36 | 36.64918 | 103.93767 | 34131 ft | 415 kts | 313° |
| 2026-05-04 17:37 | 36.68078 | 103.87705 | 34141 ft | 420 kts | 304° |
| 2026-05-04 17:37 | 36.70895 | 103.81338 | 34162 ft | 421 kts | 304° |
| 2026-05-04 17:38 | 36.73677 | 103.74958 | 34173 ft | 421 kts | 303° |
| 2026-05-04 17:38 | 36.76459 | 103.68538 | 34193 ft | 421 kts | 303° |
| 2026-05-04 17:39 | 36.80595 | 103.58950 | 34221 ft | 420 kts | 303° |
| 2026-05-04 17:39 | 36.83344 | 103.52560 | 34233 ft | 420 kts | 303° |
| 2026-05-04 17:40 | 36.86105 | 103.46133 | 34260 ft | 419 kts | 303° |
| 2026-05-04 17:40 | 36.88834 | 103.39759 | 34278 ft | 418 kts | 303° |
| 2026-05-04 17:41 | 36.91581 | 103.33339 | 34303 ft | 418 kts | 302° |
| 2026-05-04 17:41 | 36.94390 | 103.27046 | 34313 ft | 417 kts | 305° |
| 2026-05-04 17:42 | 36.97472 | 103.20908 | 34332 ft | 417 kts | 306° |
| 2026-05-04 17:42 | 37.00561 | 103.14778 | 34345 ft | 416 kts | 306° |
| 2026-05-04 17:43 | 37.03623 | 103.08689 | 34351 ft | 415 kts | 306° |
| 2026-05-04 17:43 | 37.06672 | 103.02612 | 34360 ft | 414 kts | 306° |
| 2026-05-04 17:44 | 37.09734 | 102.96503 | 34359 ft | 416 kts | 305° |
| 2026-05-04 17:44 | 37.12797 | 102.90382 | 34349 ft | 416 kts | 306° |
| 2026-05-04 17:45 | 37.15865 | 102.84238 | 34355 ft | 416 kts | 306° |
| 2026-05-04 17:45 | 37.18924 | 102.78100 | 34369 ft | 416 kts | 306° |
| 2026-05-04 17:46 | 37.21969 | 102.71983 | 34376 ft | 416 kts | 306° |
| 2026-05-04 17:46 | 37.25020 | 102.65840 | 34384 ft | 417 kts | 305° |
| 2026-05-04 17:47 | 37.28086 | 102.59650 | 34386 ft | 418 kts | 305° |
| 2026-05-04 17:47 | 37.31115 | 102.53499 | 34390 ft | 417 kts | 304° |
| 2026-05-04 17:48 | 37.33848 | 102.47031 | 34397 ft | 420 kts | 299° |
| 2026-05-04 17:48 | 37.36105 | 102.40276 | 34402 ft | 423 kts | 295° |
| 2026-05-04 17:49 | 37.37885 | 102.33199 | 34415 ft | 426 kts | 289° |
| 2026-05-04 17:49 | 37.39332 | 102.26002 | 34424 ft | 426 kts | 289° |
| 2026-05-04 17:50 | 37.40761 | 102.18771 | 34432 ft | 427 kts | 289° |
| 2026-05-04 17:50 | 37.42183 | 102.11540 | 34430 ft | 427 kts | 288° |
| 2026-05-04 17:51 | 37.43591 | 102.04318 | 34438 ft | 428 kts | 288° |
| 2026-05-04 17:51 | 37.44996 | 101.97058 | 34454 ft | 428 kts | 288° |
| 2026-05-04 17:52 | 37.46394 | 101.89814 | 34467 ft | 427 kts | 288° |
| 2026-05-04 17:52 | 37.47785 | 101.82570 | 34501 ft | 428 kts | 288° |
| 2026-05-04 17:53 | 37.49234 | 101.75357 | 34516 ft | 425 kts | 290° |
| 2026-05-04 17:53 | 37.51125 | 101.68333 | 34525 ft | 423 kts | 295° |
| 2026-05-04 17:54 | 37.53490 | 101.61603 | 34500 ft | 421 kts | 300° |
| 2026-05-04 17:54 | 37.56204 | 101.55119 | 34489 ft | 420 kts | 301° |
| 2026-05-04 17:55 | 37.58953 | 101.48654 | 34452 ft | 420 kts | 301° |
| 2026-05-04 17:55 | 37.61707 | 101.42174 | 34453 ft | 419 kts | 301° |
| 2026-05-04 17:56 | 37.64437 | 101.35741 | 34461 ft | 419 kts | 300° |
| 2026-05-04 17:56 | 37.67189 | 101.29250 | 34473 ft | 419 kts | 300° |
| 2026-05-04 17:57 | 37.69932 | 101.22763 | 34474 ft | 418 kts | 300° |
| 2026-05-04 17:57 | 37.72653 | 101.16310 | 34468 ft | 418 kts | 300° |
| 2026-05-04 17:58 | 37.75381 | 101.09839 | 34477 ft | 418 kts | 300° |
| 2026-05-04 17:58 | 37.78098 | 101.03381 | 34487 ft | 418 kts | 300° |
| 2026-05-04 17:59 | 37.80822 | 100.96889 | 34496 ft | 419 kts | 300° |
| 2026-05-04 18:00 | 37.84965 | 100.87214 | 34520 ft | 419 kts | 301° |
| 2026-05-04 18:00 | 37.87837 | 100.80826 | 34536 ft | 419 kts | 301° |
| 2026-05-04 18:01 | 37.90697 | 100.74434 | 34535 ft | 418 kts | 301° |
| 2026-05-04 18:01 | 37.93565 | 100.67999 | 34528 ft | 419 kts | 301° |
| 2026-05-04 18:02 | 37.97837 | 100.58378 | 34521 ft | 419 kts | 301° |
| 2026-05-04 18:02 | 38.00667 | 100.51985 | 34523 ft | 419 kts | 301° |
| 2026-05-04 18:03 | 38.03509 | 100.45551 | 34538 ft | 418 kts | 300° |
| 2026-05-04 18:03 | 38.06345 | 100.39114 | 34546 ft | 419 kts | 300° |
| 2026-05-04 18:04 | 38.09181 | 100.32672 | 34548 ft | 419 kts | 300° |
| 2026-05-04 18:05 | 38.13430 | 100.22984 | 34542 ft | 420 kts | 300° |
| 2026-05-04 18:05 | 38.16266 | 100.16508 | 34531 ft | 420 kts | 300° |
| 2026-05-04 18:06 | 38.20511 | 100.06786 | 34478 ft | 421 kts | 300° |
| 2026-05-04 18:06 | 38.23338 | 100.00293 | 34477 ft | 421 kts | 300° |
| 2026-05-04 18:07 | 38.26163 | 99.93791 | 34482 ft | 422 kts | 299° |
| 2026-05-04 18:07 | 38.28980 | 99.87298 | 34494 ft | 422 kts | 300° |
| 2026-05-04 18:08 | 38.31814 | 99.80748 | 34496 ft | 423 kts | 300° |
| 2026-05-04 18:08 | 38.34637 | 99.74214 | 34505 ft | 423 kts | 300° |
| 2026-05-04 18:09 | 38.40300 | 99.61066 | 34529 ft | 425 kts | 299° |
| 2026-05-04 18:10 | 38.43122 | 99.54491 | 34526 ft | 424 kts | 300° |
| 2026-05-04 18:10 | 38.45944 | 99.47901 | 34540 ft | 424 kts | 299° |
| 2026-05-04 18:11 | 38.48766 | 99.41299 | 34525 ft | 424 kts | 300° |
| 2026-05-04 18:11 | 38.51577 | 99.34712 | 34553 ft | 424 kts | 299° |
| 2026-05-04 18:12 | 38.54397 | 99.28086 | 34559 ft | 424 kts | 299° |
| 2026-05-04 18:12 | 38.57186 | 99.21521 | 34566 ft | 424 kts | 299° |
| 2026-05-04 18:13 | 38.60001 | 99.14882 | 34580 ft | 423 kts | 299° |
| 2026-05-04 18:14 | 38.64185 | 99.04985 | 34595 ft | 424 kts | 298° |
| 2026-05-04 18:14 | 38.66972 | 98.98373 | 34613 ft | 423 kts | 298° |
| 2026-05-04 18:15 | 38.72523 | 98.85168 | 34608 ft | 423 kts | 299° |
| 2026-05-04 18:16 | 38.75297 | 98.78542 | 34594 ft | 424 kts | 299° |
| 2026-05-04 18:16 | 38.78073 | 98.71907 | 34600 ft | 424 kts | 298° |
| 2026-05-04 18:17 | 38.82230 | 98.61939 | 34572 ft | 424 kts | 298° |
| 2026-05-04 18:18 | 38.86383 | 98.51946 | 34571 ft | 424 kts | 298° |
| 2026-05-04 18:18 | 38.89132 | 98.45312 | 34554 ft | 423 kts | 298° |
| 2026-05-04 18:19 | 38.93257 | 98.35345 | 34535 ft | 422 kts | 298° |
| 2026-05-04 18:19 | 38.96011 | 98.28662 | 34534 ft | 422 kts | 298° |
| 2026-05-04 18:20 | 38.98750 | 98.22002 | 34524 ft | 424 kts | 298° |
| 2026-05-04 18:20 | 39.01498 | 98.15309 | 34519 ft | 424 kts | 298° |
| 2026-05-04 18:21 | 39.04224 | 98.08656 | 34524 ft | 424 kts | 298° |
| 2026-05-04 18:21 | 39.06967 | 98.01942 | 34522 ft | 425 kts | 298° |
| 2026-05-04 18:22 | 39.09723 | 97.95187 | 34531 ft | 425 kts | 298° |
| 2026-05-04 18:22 | 39.12448 | 97.88496 | 34533 ft | 425 kts | 298° |
| 2026-05-04 18:23 | 39.15182 | 97.81760 | 34501 ft | 424 kts | 298° |
| 2026-05-04 18:23 | 39.17902 | 97.75045 | 34492 ft | 424 kts | 297° |
| 2026-05-04 18:24 | 39.20622 | 97.68323 | 34466 ft | 423 kts | 297° |
| 2026-05-04 18:24 | 39.23317 | 97.61643 | 34465 ft | 422 kts | 297° |
| 2026-05-04 18:25 | 39.26020 | 97.54946 | 34472 ft | 422 kts | 297° |
| 2026-05-04 18:25 | 39.28721 | 97.48248 | 34476 ft | 422 kts | 297° |
| 2026-05-04 18:26 | 39.31421 | 97.41548 | 34464 ft | 422 kts | 297° |
| 2026-05-04 18:26 | 39.34115 | 97.34838 | 34473 ft | 421 kts | 296° |
| 2026-05-04 18:27 | 39.36807 | 97.28110 | 34466 ft | 421 kts | 297° |
| 2026-05-04 18:27 | 39.39491 | 97.21403 | 34451 ft | 421 kts | 297° |
| 2026-05-04 18:28 | 39.42169 | 97.14691 | 34460 ft | 420 kts | 297° |
| 2026-05-04 18:28 | 39.44833 | 97.08004 | 34435 ft | 420 kts | 296° |
| 2026-05-04 18:29 | 39.47483 | 97.01338 | 34422 ft | 420 kts | 296° |
| 2026-05-04 18:29 | 39.50183 | 96.94607 | 34417 ft | 420 kts | 296° |
| 2026-05-04 18:30 | 39.54199 | 96.84580 | 34409 ft | 420 kts | 296° |
| 2026-05-04 18:31 | 39.56878 | 96.77870 | 34409 ft | 421 kts | 296° |
| 2026-05-04 18:31 | 39.59556 | 96.71145 | 34404 ft | 421 kts | 296° |
| 2026-05-04 18:32 | 39.62213 | 96.64453 | 34387 ft | 420 kts | 296° |
| 2026-05-04 18:32 | 39.64880 | 96.57711 | 34386 ft | 421 kts | 296° |
| 2026-05-04 18:33 | 39.67515 | 96.51006 | 34379 ft | 420 kts | 296° |
| 2026-05-04 18:33 | 39.70165 | 96.44261 | 34369 ft | 420 kts | 295° |
| 2026-05-04 18:34 | 39.72825 | 96.37482 | 34307 ft | 421 kts | 295° |
| 2026-05-04 18:34 | 39.75462 | 96.30730 | 34293 ft | 420 kts | 295° |
| 2026-05-04 18:35 | 39.78100 | 96.23974 | 34267 ft | 422 kts | 295° |
| 2026-05-04 18:35 | 39.80748 | 96.17178 | 34226 ft | 422 kts | 295° |
| 2026-05-04 18:36 | 39.83376 | 96.10409 | 34219 ft | 422 kts | 294° |
| 2026-05-04 18:36 | 39.86020 | 96.03590 | 34204 ft | 423 kts | 294° |
| 2026-05-04 18:37 | 39.88654 | 95.96781 | 34167 ft | 422 kts | 294° |
| 2026-05-04 18:37 | 39.91272 | 95.89996 | 34150 ft | 423 kts | 294° |
| 2026-05-04 18:38 | 39.93897 | 95.83172 | 34149 ft | 423 kts | 294° |
| 2026-05-04 18:38 | 39.96529 | 95.76315 | 34132 ft | 424 kts | 294° |
| 2026-05-04 18:39 | 39.99152 | 95.69469 | 34117 ft | 424 kts | 294° |
| 2026-05-04 18:39 | 40.01776 | 95.62615 | 34101 ft | 425 kts | 294° |
| 2026-05-04 18:40 | 40.04409 | 95.55714 | 34090 ft | 425 kts | 294° |
| 2026-05-04 18:40 | 40.07030 | 95.48827 | 34080 ft | 426 kts | 294° |
| 2026-05-04 18:41 | 40.09650 | 95.41920 | 34081 ft | 425 kts | 294° |
| 2026-05-04 18:41 | 40.12273 | 95.35004 | 34066 ft | 425 kts | 294° |
| 2026-05-04 18:42 | 40.14875 | 95.28108 | 34055 ft | 426 kts | 293° |
| 2026-05-04 18:42 | 40.17486 | 95.21198 | 34036 ft | 427 kts | 293° |
| 2026-05-04 18:43 | 40.20096 | 95.14259 | 34031 ft | 425 kts | 293° |
| 2026-05-04 18:43 | 40.22737 | 95.07314 | 34027 ft | 427 kts | 294° |
| 2026-05-04 18:44 | 40.25363 | 95.00425 | 34020 ft | 427 kts | 294° |
| 2026-05-04 18:44 | 40.28013 | 94.93461 | 34010 ft | 428 kts | 295° |
| 2026-05-04 18:45 | 40.30976 | 94.86749 | 34008 ft | 429 kts | 299° |
| 2026-05-04 18:45 | 40.34409 | 94.80375 | 34015 ft | 430 kts | 303° |
| 2026-05-04 18:46 | 40.38142 | 94.74168 | 34015 ft | 432 kts | 304° |
| 2026-05-04 18:46 | 40.41866 | 94.68013 | 34000 ft | 432 kts | 304° |
| 2026-05-04 18:47 | 40.45587 | 94.61852 | 34002 ft | 432 kts | 304° |
| 2026-05-04 18:47 | 40.49309 | 94.55673 | 33990 ft | 432 kts | 304° |
| 2026-05-04 18:48 | 40.53025 | 94.49496 | 33991 ft | 432 kts | 304° |
| 2026-05-04 18:48 | 40.56734 | 94.43314 | 34002 ft | 431 kts | 304° |
| 2026-05-04 18:49 | 40.60442 | 94.37128 | 34013 ft | 431 kts | 303° |
| 2026-05-04 18:49 | 40.64126 | 94.30965 | 34009 ft | 431 kts | 303° |
| 2026-05-04 18:50 | 40.67821 | 94.24767 | 34023 ft | 432 kts | 303° |
| 2026-05-04 18:50 | 40.71532 | 94.18542 | 34037 ft | 433 kts | 303° |
| 2026-05-04 18:51 | 40.75224 | 94.12324 | 34029 ft | 432 kts | 302° |
| 2026-05-04 18:51 | 40.78936 | 94.06069 | 34039 ft | 433 kts | 302° |
| 2026-05-04 18:52 | 40.82626 | 93.99836 | 34045 ft | 433 kts | 302° |
| 2026-05-04 18:52 | 40.86327 | 93.93571 | 34034 ft | 435 kts | 303° |
| 2026-05-04 18:53 | 40.90041 | 93.87271 | 34031 ft | 434 kts | 303° |
| 2026-05-04 18:53 | 40.93859 | 93.81127 | 34028 ft | 436 kts | 305° |
| 2026-05-04 18:54 | 40.97797 | 93.75029 | 34036 ft | 437 kts | 306° |
| 2026-05-04 18:54 | 41.01747 | 93.68919 | 34030 ft | 439 kts | 305° |
| 2026-05-04 18:55 | 41.05695 | 93.62785 | 34022 ft | 437 kts | 305° |
| 2026-05-04 18:55 | 41.11610 | 93.53574 | 34013 ft | 438 kts | 305° |
| 2026-05-04 18:56 | 41.15522 | 93.47467 | 34010 ft | 437 kts | 305° |
| 2026-05-04 18:56 | 41.19465 | 93.41299 | 33996 ft | 435 kts | 305° |
| 2026-05-04 18:57 | 41.23346 | 93.35214 | 33986 ft | 435 kts | 305° |
| 2026-05-04 18:57 | 41.27261 | 93.29063 | 33985 ft | 436 kts | 304° |
| 2026-05-04 18:58 | 41.31164 | 93.22919 | 33986 ft | 434 kts | 304° |
| 2026-05-04 18:58 | 41.35054 | 93.16779 | 33987 ft | 436 kts | 304° |
| 2026-05-04 18:59 | 41.38958 | 93.10613 | 33983 ft | 434 kts | 304° |
| 2026-05-04 18:59 | 41.42821 | 93.04496 | 33983 ft | 434 kts | 304° |
| 2026-05-04 19:00 | 41.46703 | 92.98336 | 33985 ft | 436 kts | 304° |
| 2026-05-04 19:00 | 41.50603 | 92.92136 | 33982 ft | 436 kts | 304° |
| 2026-05-04 19:01 | 41.54465 | 92.85980 | 33974 ft | 435 kts | 304° |
| 2026-05-04 19:01 | 41.58329 | 92.79810 | 33972 ft | 433 kts | 304° |
| 2026-05-04 19:02 | 41.62180 | 92.73644 | 33972 ft | 433 kts | 304° |
| 2026-05-04 19:02 | 41.66006 | 92.67512 | 33968 ft | 433 kts | 304° |
| 2026-05-04 19:03 | 41.69848 | 92.61340 | 33974 ft | 433 kts | 304° |
| 2026-05-04 19:03 | 41.73698 | 92.55135 | 33977 ft | 433 kts | 304° |
| 2026-05-04 19:04 | 41.77537 | 92.48940 | 33981 ft | 433 kts | 304° |
| 2026-05-04 19:04 | 41.81334 | 92.42808 | 33980 ft | 431 kts | 303° |
| 2026-05-04 19:05 | 41.85148 | 92.36630 | 33976 ft | 431 kts | 304° |
| 2026-05-04 19:05 | 41.88987 | 92.30399 | 33961 ft | 432 kts | 303° |
| 2026-05-04 19:06 | 41.92784 | 92.24219 | 33956 ft | 432 kts | 303° |
| 2026-05-04 19:06 | 41.96612 | 92.17985 | 33952 ft | 434 kts | 303° |
| 2026-05-04 19:07 | 42.00418 | 92.11763 | 33958 ft | 434 kts | 303° |
| 2026-05-04 19:07 | 42.04239 | 92.05511 | 33958 ft | 434 kts | 303° |
| 2026-05-04 19:08 | 42.08078 | 91.99210 | 33950 ft | 433 kts | 303° |
| 2026-05-04 19:08 | 42.11881 | 91.92964 | 33949 ft | 435 kts | 303° |
| 2026-05-04 19:09 | 42.15708 | 91.86661 | 33941 ft | 433 kts | 304° |
| 2026-05-04 19:09 | 42.19503 | 91.80402 | 33952 ft | 434 kts | 303° |
| 2026-05-04 19:10 | 42.23460 | 91.74224 | 33949 ft | 439 kts | 307° |
| 2026-05-04 19:10 | 42.27821 | 91.68433 | 33955 ft | 441 kts | 310° |
| 2026-05-04 19:11 | 42.32291 | 91.62717 | 33942 ft | 443 kts | 310° |
| 2026-05-04 19:11 | 42.36748 | 91.57017 | 33934 ft | 443 kts | 310° |
| 2026-05-04 19:12 | 42.43441 | 91.48429 | 33934 ft | 444 kts | 310° |
| 2026-05-04 19:13 | 42.47913 | 91.42674 | 33912 ft | 446 kts | 310° |
| 2026-05-04 19:13 | 42.52398 | 91.36892 | 33919 ft | 445 kts | 310° |
| 2026-05-04 19:14 | 42.56856 | 91.31129 | 33922 ft | 446 kts | 310° |
| 2026-05-04 19:14 | 42.61353 | 91.25304 | 33898 ft | 446 kts | 310° |
| 2026-05-04 19:15 | 42.65836 | 91.19488 | 33889 ft | 448 kts | 310° |
| 2026-05-04 19:15 | 42.70324 | 91.13651 | 33858 ft | 449 kts | 310° |
| 2026-05-04 19:16 | 42.74842 | 91.07767 | 33847 ft | 449 kts | 310° |
| 2026-05-04 19:16 | 42.79320 | 91.01921 | 33847 ft | 450 kts | 310° |
| 2026-05-04 19:17 | 42.83843 | 90.95990 | 33855 ft | 451 kts | 309° |
| 2026-05-04 19:17 | 42.88031 | 90.89729 | 33847 ft | 446 kts | 304° |
| 2026-05-04 19:18 | 42.91705 | 90.83034 | 33858 ft | 444 kts | 299° |
| 2026-05-04 19:18 | 42.95000 | 90.75953 | 33843 ft | 442 kts | 297° |
| 2026-05-04 19:19 | 42.98236 | 90.68839 | 33857 ft | 442 kts | 297° |
| 2026-05-04 19:19 | 43.01463 | 90.61714 | 33846 ft | 443 kts | 297° |
| 2026-05-04 19:20 | 43.04694 | 90.54575 | 33890 ft | 443 kts | 297° |
| 2026-05-04 19:20 | 43.07932 | 90.47401 | 33926 ft | 444 kts | 297° |
| 2026-05-04 19:21 | 43.11158 | 90.40235 | 33961 ft | 445 kts | 297° |
| 2026-05-04 19:21 | 43.14406 | 90.33001 | 33972 ft | 445 kts | 296° |
| 2026-05-04 19:22 | 43.17621 | 90.25825 | 33987 ft | 445 kts | 296° |
| 2026-05-04 19:22 | 43.20848 | 90.18609 | 34015 ft | 446 kts | 297° |
| 2026-05-04 19:23 | 43.24063 | 90.11391 | 34044 ft | 447 kts | 297° |
| 2026-05-04 19:23 | 43.27291 | 90.04128 | 34058 ft | 447 kts | 297° |
| 2026-05-04 19:24 | 43.30520 | 89.96845 | 34093 ft | 447 kts | 297° |
| 2026-05-04 19:24 | 43.33750 | 89.89553 | 34113 ft | 446 kts | 297° |
| 2026-05-04 19:25 | 43.36953 | 89.82291 | 34133 ft | 447 kts | 297° |
| 2026-05-04 19:25 | 43.40145 | 89.75040 | 34147 ft | 446 kts | 297° |
| 2026-05-04 19:26 | 43.43342 | 89.67767 | 34147 ft | 446 kts | 297° |
| 2026-05-04 19:26 | 43.46542 | 89.60460 | 34159 ft | 448 kts | 297° |
| 2026-05-04 19:27 | 43.49749 | 89.53123 | 34159 ft | 447 kts | 297° |
| 2026-05-04 19:27 | 43.52935 | 89.45820 | 34154 ft | 447 kts | 297° |
| 2026-05-04 19:28 | 43.56112 | 89.38516 | 34167 ft | 446 kts | 297° |
| 2026-05-04 19:28 | 43.59364 | 89.31210 | 34167 ft | 448 kts | 297° |
| 2026-05-04 19:29 | 43.62634 | 89.23886 | 34159 ft | 447 kts | 297° |
| 2026-05-04 19:29 | 43.65865 | 89.16623 | 34157 ft | 448 kts | 297° |
| 2026-05-04 19:30 | 43.69112 | 89.09302 | 34151 ft | 448 kts | 297° |
| 2026-05-04 19:30 | 43.72343 | 89.01999 | 34142 ft | 448 kts | 297° |
| 2026-05-04 19:31 | 43.75590 | 88.94639 | 34147 ft | 449 kts | 297° |
| 2026-05-04 19:31 | 43.78828 | 88.87283 | 34165 ft | 448 kts | 297° |
| 2026-05-04 19:32 | 43.82044 | 88.79957 | 34166 ft | 448 kts | 297° |
| 2026-05-04 19:32 | 43.85257 | 88.72614 | 34185 ft | 448 kts | 297° |
| 2026-05-04 19:33 | 43.88477 | 88.65241 | 34184 ft | 449 kts | 297° |
| 2026-05-04 19:33 | 43.91697 | 88.57846 | 34177 ft | 449 kts | 297° |
| 2026-05-04 19:34 | 43.94902 | 88.50469 | 34178 ft | 449 kts | 297° |
| 2026-05-04 19:34 | 43.98119 | 88.43044 | 34160 ft | 448 kts | 297° |
| 2026-05-04 19:35 | 44.01306 | 88.35673 | 34160 ft | 450 kts | 297° |
| 2026-05-04 19:35 | 44.04451 | 88.28378 | 34163 ft | 449 kts | 296° |
| 2026-05-04 19:36 | 44.07646 | 88.20949 | 34156 ft | 448 kts | 297° |
| 2026-05-04 19:36 | 44.10826 | 88.13537 | 34135 ft | 448 kts | 296° |
| 2026-05-04 19:37 | 44.14021 | 88.06072 | 34125 ft | 450 kts | 297° |
| 2026-05-04 19:37 | 44.17262 | 87.98705 | 34106 ft | 450 kts | 300° |
| 2026-05-04 19:38 | 44.20930 | 87.91625 | 34096 ft | 452 kts | 302° |
| 2026-05-04 19:38 | 44.24708 | 87.84634 | 34083 ft | 451 kts | 302° |
| 2026-05-04 19:39 | 44.28472 | 87.77660 | 34077 ft | 450 kts | 302° |
| 2026-05-04 19:39 | 44.32206 | 87.70709 | 34072 ft | 451 kts | 302° |
| 2026-05-04 19:40 | 44.35981 | 87.63755 | 34074 ft | 451 kts | 303° |
| 2026-05-04 19:40 | 44.39705 | 87.56999 | 34069 ft | 450 kts | 303° |
| 2026-05-04 19:41 | 44.43521 | 87.50056 | 34075 ft | 451 kts | 303° |
| 2026-05-04 19:41 | 44.47333 | 87.43091 | 34074 ft | 451 kts | 303° |
| 2026-05-04 19:42 | 44.51121 | 87.36154 | 34071 ft | 450 kts | 303° |
| 2026-05-04 19:42 | 44.54895 | 87.29225 | 34064 ft | 449 kts | 303° |
| 2026-05-04 19:43 | 44.58789 | 87.22401 | 34061 ft | 449 kts | 304° |
| 2026-05-04 19:43 | 44.62750 | 87.15630 | 34061 ft | 449 kts | 304° |
| 2026-05-04 19:44 | 44.66667 | 87.08886 | 34054 ft | 447 kts | 304° |
| 2026-05-04 19:44 | 44.70581 | 87.02110 | 34056 ft | 447 kts | 304° |
| 2026-05-04 19:45 | 44.74470 | 86.95362 | 34057 ft | 447 kts | 304° |
| 2026-05-04 19:45 | 44.78302 | 86.88723 | 34056 ft | 447 kts | 304° |
| 2026-05-04 19:46 | 44.82206 | 86.81941 | 34053 ft | 447 kts | 304° |
| 2026-05-04 19:46 | 44.86068 | 86.75139 | 34043 ft | 446 kts | 304° |
| 2026-05-04 19:47 | 44.89891 | 86.68306 | 34044 ft | 445 kts | 304° |
| 2026-05-04 19:47 | 44.93710 | 86.61476 | 34045 ft | 445 kts | 304° |
| 2026-05-04 19:48 | 44.97522 | 86.54647 | 34048 ft | 444 kts | 304° |
| 2026-05-04 19:48 | 45.01331 | 86.47814 | 34047 ft | 444 kts | 304° |
| 2026-05-04 19:49 | 45.05131 | 86.40977 | 34037 ft | 444 kts | 304° |
| 2026-05-04 19:49 | 45.08941 | 86.34106 | 34043 ft | 444 kts | 303° |
| 2026-05-04 19:50 | 45.12737 | 86.27245 | 34040 ft | 443 kts | 303° |
| 2026-05-04 19:50 | 45.16457 | 86.20507 | 34041 ft | 443 kts | 303° |
| 2026-05-04 19:51 | 45.20228 | 86.13657 | 34044 ft | 442 kts | 303° |
| 2026-05-04 19:51 | 45.23993 | 86.06804 | 34030 ft | 440 kts | 303° |
| 2026-05-04 19:52 | 45.27740 | 85.99966 | 34019 ft | 440 kts | 303° |
| 2026-05-04 19:52 | 45.31468 | 85.93148 | 34025 ft | 441 kts | 303° |
| 2026-05-04 19:53 | 45.35220 | 85.86270 | 34019 ft | 440 kts | 303° |
| 2026-05-04 19:53 | 45.38947 | 85.79419 | 34005 ft | 439 kts | 303° |
| 2026-05-04 19:54 | 45.42653 | 85.72590 | 34007 ft | 439 kts | 303° |
| 2026-05-04 19:54 | 45.46388 | 85.65691 | 34015 ft | 438 kts | 303° |
| 2026-05-04 19:55 | 45.50057 | 85.58900 | 33997 ft | 437 kts | 303° |
| 2026-05-04 19:55 | 45.53700 | 85.52138 | 34007 ft | 437 kts | 303° |
| 2026-05-04 19:56 | 45.57362 | 85.45325 | 34008 ft | 436 kts | 303° |
| 2026-05-04 19:56 | 45.61040 | 85.38469 | 34006 ft | 435 kts | 303° |
| 2026-05-04 19:57 | 45.64719 | 85.31592 | 34006 ft | 434 kts | 303° |
| 2026-05-04 19:57 | 45.68372 | 85.24748 | 34022 ft | 434 kts | 302° |
| 2026-05-04 19:58 | 45.72012 | 85.17932 | 34019 ft | 433 kts | 303° |
| 2026-05-04 19:58 | 45.75659 | 85.11121 | 34023 ft | 432 kts | 303° |
| 2026-05-04 19:59 | 45.79303 | 85.04305 | 34031 ft | 432 kts | 303° |
| 2026-05-04 19:59 | 45.82947 | 84.97462 | 34054 ft | 431 kts | 303° |
| 2026-05-04 20:00 | 45.86554 | 84.90681 | 34073 ft | 431 kts | 302° |
| 2026-05-04 20:00 | 45.90158 | 84.83886 | 34077 ft | 430 kts | 303° |
| 2026-05-04 20:01 | 45.93731 | 84.77137 | 34102 ft | 430 kts | 303° |
| 2026-05-04 20:01 | 45.97335 | 84.70303 | 34102 ft | 430 kts | 303° |
| 2026-05-04 20:02 | 46.00914 | 84.63509 | 34114 ft | 430 kts | 303° |
| 2026-05-04 20:02 | 46.04527 | 84.56638 | 34120 ft | 430 kts | 303° |
| 2026-05-04 20:03 | 46.08107 | 84.49805 | 34122 ft | 430 kts | 303° |
| 2026-05-04 20:03 | 46.11694 | 84.42943 | 34139 ft | 431 kts | 303° |
| 2026-05-04 20:04 | 46.15295 | 84.36039 | 34147 ft | 431 kts | 303° |
| 2026-05-04 20:04 | 46.18861 | 84.29183 | 34135 ft | 430 kts | 302° |
| 2026-05-04 20:05 | 46.22435 | 84.22299 | 34162 ft | 430 kts | 302° |
| 2026-05-04 20:05 | 46.26001 | 84.15411 | 34151 ft | 431 kts | 303° |
| 2026-05-04 20:06 | 46.29502 | 84.08589 | 34186 ft | 431 kts | 302° |
| 2026-05-04 20:06 | 46.33064 | 84.01623 | 34169 ft | 432 kts | 303° |
| 2026-05-04 20:07 | 46.36637 | 83.94628 | 34158 ft | 433 kts | 302° |
| 2026-05-04 20:07 | 46.40187 | 83.87647 | 34191 ft | 433 kts | 303° |
| 2026-05-04 20:08 | 46.43753 | 83.80635 | 34161 ft | 433 kts | 303° |
| 2026-05-04 20:08 | 46.47324 | 83.73591 | 34202 ft | 435 kts | 303° |
| 2026-05-04 20:09 | 46.50891 | 83.66537 | 34172 ft | 435 kts | 303° |
| 2026-05-04 20:09 | 46.54456 | 83.59469 | 34197 ft | 436 kts | 304° |
| 2026-05-04 20:10 | 46.58005 | 83.52424 | 34193 ft | 436 kts | 304° |
| 2026-05-04 20:10 | 46.61573 | 83.45311 | 34176 ft | 438 kts | 304° |
| 2026-05-04 20:11 | 46.65089 | 83.38270 | 34190 ft | 438 kts | 303° |
| 2026-05-04 20:11 | 46.68403 | 83.30869 | 34189 ft | 439 kts | 300° |
| 2026-05-04 20:12 | 46.71663 | 83.23329 | 34133 ft | 440 kts | 301° |
| 2026-05-04 20:12 | 46.74923 | 83.15781 | 34110 ft | 441 kts | 301° |